createdAt,value
2022-12-01T00:01:44.115Z,96648.78
2022-12-01T00:04:10.621Z,96667.19
2022-12-01T00:06:37.049Z,96653.97
2022-12-01T00:09:22.076Z,96658.41
2022-12-01T00:11:48.575Z,96683.44
2022-12-01T00:14:16.271Z,96691.19
2022-12-01T00:16:44.396Z,96703.63
2022-12-01T00:19:10.943Z,96730.09
2022-12-01T00:21:37.308Z,96750.00
2022-12-01T00:24:03.873Z,96758.03
2022-12-01T00:26:30.264Z,96761.75
2022-12-01T00:28:58.023Z,96766.94
2022-12-01T00:31:24.633Z,96751.94
2022-12-01T00:33:51.173Z,96773.59
2022-12-01T00:36:17.681Z,96803.66
2022-12-01T00:38:44.054Z,96865.16
2022-12-01T00:41:10.424Z,96861.63
2022-12-01T00:43:36.855Z,96847.59
2022-12-01T00:46:03.319Z,96837.13
2022-12-01T00:48:29.808Z,96875.66
2022-12-01T00:50:56.343Z,96895.44
2022-12-01T00:53:22.937Z,96901.22
2022-12-01T00:55:49.386Z,96921.25
2022-12-01T00:58:15.809Z,96932.63
2022-12-01T01:00:42.864Z,96952.03
2022-12-01T01:03:09.783Z,96976.41
2022-12-01T01:05:37.015Z,97001.97
2022-12-01T01:08:07.258Z,97008.81
2022-12-01T01:10:33.911Z,97025.19
2022-12-01T01:13:00.291Z,97039.03
2022-12-01T01:15:26.658Z,97049.19
2022-12-01T01:17:53.056Z,97064.25
2022-12-01T01:20:19.420Z,97090.44
2022-12-01T01:22:45.782Z,97109.25
2022-12-01T01:25:12.155Z,97134.19
2022-12-01T01:27:38.593Z,97124.50
2022-12-01T01:30:05.728Z,97113.31
2022-12-01T01:32:32.124Z,97107.31
2022-12-01T01:34:58.587Z,97090.88
2022-12-01T01:37:24.947Z,97072.59
2022-12-01T01:39:51.462Z,97080.44
2022-12-01T01:42:18.858Z,97097.47
2022-12-01T01:44:52.309Z,97078.09
2022-12-01T01:47:25.661Z,97064.91
2022-12-01T01:49:52.935Z,97070.19
2022-12-01T01:52:19.306Z,97079.09
2022-12-01T01:54:48.045Z,97080.78
2022-12-01T01:57:15.456Z,97090.63
2022-12-01T01:59:48.494Z,97085.25
2022-12-01T02:02:15.171Z,97066.25
2022-12-01T02:04:49.814Z,97064.41
2022-12-01T02:07:17.831Z,97067.25
2022-12-01T02:09:44.277Z,97061.06
2022-12-01T02:12:26.395Z,97040.22
2022-12-01T02:15:08.256Z,97036.19
2022-12-01T02:17:42.968Z,97020.53
2022-12-01T02:20:28.087Z,96998.00
2022-12-01T02:23:20.230Z,97018.19
2022-12-01T02:25:48.555Z,97004.66
2022-12-01T02:28:59.517Z,97005.84
2022-12-01T02:31:31.570Z,96969.81
2022-12-01T02:33:59.335Z,96939.84
2022-12-01T02:36:35.853Z,96943.34
2022-12-01T02:39:12.029Z,96954.44
2022-12-01T02:42:04.309Z,96963.53
2022-12-01T02:44:34.330Z,96977.03
2022-12-01T02:47:03.235Z,97000.47
2022-12-01T02:49:34.841Z,97023.09
2022-12-01T02:52:01.239Z,97036.69
2022-12-01T02:54:29.120Z,97047.22
2022-12-01T02:56:55.485Z,97047.72
2022-12-01T02:59:21.821Z,97051.56
2022-12-01T03:02:24.725Z,97044.28
2022-12-01T03:05:09.582Z,97018.28
2022-12-01T03:07:45.013Z,97008.44
2022-12-01T03:10:27.693Z,97005.44
2022-12-01T03:13:09.577Z,97039.22
2022-12-01T03:15:40.528Z,97049.41
2022-12-01T03:18:09.778Z,97067.94
2022-12-01T03:20:59.349Z,97124.16
2022-12-01T03:23:28.659Z,97123.88
2022-12-01T03:25:55.444Z,97130.50
2022-12-01T03:28:28.707Z,97143.25
2022-12-01T03:30:57.117Z,97154.28
2022-12-01T03:33:30.216Z,97187.22
2022-12-01T03:36:09.571Z,97200.94
2022-12-01T03:38:36.273Z,97225.59
2022-12-01T03:41:07.237Z,97219.56
2022-12-01T03:43:35.311Z,97206.72
2022-12-01T03:46:12.541Z,97188.03
2022-12-01T03:48:39.369Z,97167.66
2022-12-01T03:51:14.097Z,97139.09
2022-12-01T03:54:00.469Z,97066.72
2022-12-01T03:56:29.352Z,97017.75
2022-12-01T03:58:56.688Z,96982.94
2022-12-01T04:01:23.365Z,96966.50
2022-12-01T04:03:49.735Z,96961.91
2022-12-01T04:06:16.081Z,96950.13
2022-12-01T04:08:42.432Z,96980.16
2022-12-01T04:11:32.443Z,96971.31
2022-12-01T04:13:59.306Z,96982.50
2022-12-01T04:16:25.719Z,96966.50
2022-12-01T04:18:52.104Z,96962.63
2022-12-01T04:21:18.502Z,96977.34
2022-12-01T04:24:00.083Z,96991.06
2022-12-01T04:26:27.518Z,97007.59
2022-12-01T04:28:53.867Z,97023.44
2022-12-01T04:31:20.308Z,97050.38
2022-12-01T04:33:46.709Z,97098.59
2022-12-01T04:36:13.078Z,97127.50
2022-12-01T04:38:39.437Z,97108.25
2022-12-01T04:41:12.220Z,97118.09
2022-12-01T04:43:38.651Z,97119.47
2022-12-01T04:46:05.313Z,97121.13
2022-12-01T04:48:31.762Z,97119.59
2022-12-01T04:50:58.374Z,97136.25
2022-12-01T04:53:24.880Z,97128.47
2022-12-01T04:55:51.286Z,97092.72
2022-12-01T04:58:17.659Z,97071.31
2022-12-01T05:00:44.150Z,97063.69
2022-12-01T05:03:14.876Z,97034.63
2022-12-01T05:05:41.621Z,97045.72
2022-12-01T05:08:08.023Z,97035.78
2022-12-01T05:10:37.904Z,97062.38
2022-12-01T05:13:04.968Z,97042.19
2022-12-01T05:15:31.580Z,97056.91
2022-12-01T05:17:58.016Z,97068.38
2022-12-01T05:20:44.712Z,97082.53
2022-12-01T05:23:16.540Z,97061.94
2022-12-01T05:25:43.523Z,97061.69
2022-12-01T05:28:09.889Z,97060.34
2022-12-01T05:30:36.268Z,97084.41
2022-12-01T05:33:03.313Z,97070.28
2022-12-01T05:35:29.748Z,97037.97
2022-12-01T05:37:56.209Z,96994.31
2022-12-01T05:40:22.596Z,97008.84
2022-12-01T05:42:49.011Z,97034.97
2022-12-01T05:45:15.419Z,97034.69
2022-12-01T05:47:41.780Z,97038.19
2022-12-01T05:50:08.522Z,97051.69
2022-12-01T05:52:37.852Z,97099.31
2022-12-01T05:55:04.675Z,97083.94
2022-12-01T05:57:31.837Z,97091.81
2022-12-01T05:59:58.195Z,97110.09
2022-12-01T06:02:26.745Z,97116.41
2022-12-01T06:04:53.381Z,97121.28
2022-12-01T06:07:20.847Z,97105.78
2022-12-01T06:09:47.516Z,97083.88
2022-12-01T06:12:14.342Z,97034.53
2022-12-01T06:14:40.676Z,97015.31
2022-12-01T06:17:07.045Z,96954.19
2022-12-01T06:19:33.388Z,96906.88
2022-12-01T06:21:59.783Z,96872.59
2022-12-01T06:24:26.116Z,96876.59
2022-12-01T06:26:52.453Z,96930.38
2022-12-01T06:29:18.846Z,96944.78
2022-12-01T06:31:45.206Z,96957.63
2022-12-01T06:34:11.703Z,96966.22
2022-12-01T06:36:38.057Z,96994.13
2022-12-01T06:39:10.015Z,97017.25
2022-12-01T06:41:37.421Z,96979.63
2022-12-01T06:44:03.946Z,96985.78
2022-12-01T06:46:30.635Z,96979.31
2022-12-01T06:48:57.102Z,97008.03
2022-12-01T06:51:23.448Z,97029.47
2022-12-01T06:53:58.653Z,97049.63
2022-12-01T06:56:28.584Z,97061.63
2022-12-01T06:58:55.096Z,97075.13
2022-12-01T07:01:21.779Z,97081.81
2022-12-01T07:03:49.063Z,97115.25
2022-12-01T07:06:15.481Z,97136.53
2022-12-01T07:08:41.863Z,97161.25
2022-12-01T07:11:09.758Z,97213.47
2022-12-01T07:13:36.188Z,97229.63
2022-12-01T07:16:03.429Z,97191.47
2022-12-01T07:18:30.090Z,97178.03
2022-12-01T07:21:03.377Z,97173.50
2022-12-01T07:23:29.834Z,97157.66
2022-12-01T07:26:06.706Z,97167.88
2022-12-01T07:28:33.051Z,97190.19
2022-12-01T07:31:10.869Z,97195.50
2022-12-01T07:33:37.543Z,97191.72
2022-12-01T07:36:04.569Z,97187.91
2022-12-01T07:38:31.787Z,97215.41
2022-12-01T07:41:08.989Z,97230.78
2022-12-01T07:43:35.521Z,97254.09
2022-12-01T07:46:06.302Z,97277.63
2022-12-01T07:48:32.767Z,97265.31
2022-12-01T07:50:59.153Z,97274.50
2022-12-01T07:53:25.568Z,97278.69
2022-12-01T07:55:51.933Z,97304.81
2022-12-01T07:58:18.297Z,97299.38
2022-12-01T08:00:44.653Z,97287.19
2022-12-01T08:03:11.049Z,97290.69
2022-12-01T08:05:37.460Z,97301.97
2022-12-01T08:08:04.073Z,97313.34
2022-12-01T08:10:30.544Z,97310.78
2022-12-01T08:12:56.887Z,97294.34
2022-12-01T08:15:23.348Z,97301.78
2022-12-01T08:17:49.747Z,97296.31
2022-12-01T08:20:20.812Z,97278.84
2022-12-01T08:22:50.003Z,97281.34
2022-12-01T08:25:16.439Z,97263.19
2022-12-01T08:27:42.795Z,97293.25
2022-12-01T08:30:09.660Z,97281.13
2022-12-01T08:32:36.020Z,97255.72
2022-12-01T08:35:02.396Z,97239.00
2022-12-01T08:37:28.766Z,97246.69
2022-12-01T08:39:55.167Z,97259.53
2022-12-01T08:42:21.697Z,97273.22
2022-12-01T08:44:48.105Z,97299.38
2022-12-01T08:47:18.730Z,97300.66
2022-12-01T08:49:45.423Z,97322.94
2022-12-01T08:52:11.781Z,97330.63
2022-12-01T08:54:38.124Z,97327.97
2022-12-01T08:57:04.496Z,97337.31
2022-12-01T08:59:30.875Z,97345.16
2022-12-01T09:01:57.462Z,97341.50
2022-12-01T09:04:24.901Z,97346.69
2022-12-01T09:06:52.032Z,97380.13
2022-12-01T09:09:22.803Z,97375.88
2022-12-01T09:11:49.258Z,97381.50
2022-12-01T09:14:16.373Z,97398.69
2022-12-01T09:16:43.326Z,97419.22
2022-12-01T09:19:11.457Z,97413.00
2022-12-01T09:21:39.461Z,97424.75
2022-12-01T09:24:06.721Z,97435.28
2022-12-01T09:26:33.652Z,97446.31
2022-12-01T09:29:02.714Z,97513.44
2022-12-01T09:31:29.266Z,97531.19
2022-12-01T09:34:06.150Z,97520.56
2022-12-01T09:36:33.152Z,97532.44
2022-12-01T09:38:59.641Z,97555.09
2022-12-01T09:41:36.857Z,97560.28
2022-12-01T09:44:41.908Z,97551.19
2022-12-01T09:47:18.993Z,97517.41
2022-12-01T09:49:58.410Z,97544.03
2022-12-01T09:52:26.118Z,97557.72
2022-12-01T09:54:54.464Z,97586.97
2022-12-01T09:57:31.227Z,97604.97
2022-12-01T09:59:58.626Z,97593.53
2022-12-01T10:02:54.349Z,97632.56
2022-12-01T10:05:22.697Z,97646.66
2022-12-01T10:07:58.919Z,97667.47
2022-12-01T10:10:30.298Z,97671.56
2022-12-01T10:12:56.714Z,97666.66
2022-12-01T10:15:32.052Z,97647.00
2022-12-01T10:18:36.368Z,97616.75
2022-12-01T10:21:19.705Z,97594.31
2022-12-01T10:24:23.148Z,97575.78
2022-12-01T10:26:54.440Z,97555.09
2022-12-01T10:29:28.485Z,97521.25
2022-12-01T10:31:57.911Z,97510.34
2022-12-01T10:34:27.238Z,97496.59
2022-12-01T10:36:53.682Z,97469.13
2022-12-01T10:39:36.239Z,97430.97
2022-12-01T10:42:30.764Z,97414.72
2022-12-01T10:44:57.420Z,97411.47
2022-12-01T10:47:25.419Z,97408.88
2022-12-01T10:49:52.297Z,97396.88
2022-12-01T10:52:32.869Z,97414.66
2022-12-01T10:54:59.609Z,97413.66
2022-12-01T10:57:26.869Z,97425.00
2022-12-01T11:00:04.287Z,97398.16
2022-12-01T11:02:30.932Z,97376.19
2022-12-01T11:04:59.395Z,97372.53
2022-12-01T11:07:32.381Z,97388.00
2022-12-01T11:10:04.485Z,97422.03
2022-12-01T11:12:30.893Z,97400.63
2022-12-01T11:14:57.377Z,97397.16
2022-12-01T11:17:25.792Z,97380.38
2022-12-01T11:19:52.689Z,97397.00
2022-12-01T11:22:28.995Z,97381.22
2022-12-01T11:24:55.331Z,97366.75
2022-12-01T11:27:26.871Z,97391.41
2022-12-01T11:29:58.048Z,97415.31
2022-12-01T11:32:32.730Z,97424.91
2022-12-01T11:35:27.222Z,97467.00
2022-12-01T11:38:27.930Z,97480.47
2022-12-01T11:40:49.503Z,97456.75
2022-12-01T11:43:23.398Z,97434.16
2022-12-01T11:45:49.859Z,97421.97
2022-12-01T11:48:25.640Z,97425.34
2022-12-01T11:51:26.495Z,97418.88
2022-12-01T11:54:20.524Z,97437.41
2022-12-01T11:56:52.764Z,97451.03
2022-12-01T11:59:30.918Z,97467.41
2022-12-01T12:02:00.291Z,97484.59
2022-12-01T12:04:32.535Z,97513.81
2022-12-01T12:07:17.856Z,97533.53
2022-12-01T12:09:59.608Z,97530.38
2022-12-01T12:12:35.022Z,97515.91
2022-12-01T12:15:15.044Z,97498.78
2022-12-01T12:17:53.698Z,97529.25
2022-12-01T12:20:24.713Z,97507.63
2022-12-01T12:23:11.028Z,97463.22
2022-12-01T12:25:56.049Z,97450.78
2022-12-01T12:28:31.513Z,97457.31
2022-12-01T12:31:14.013Z,97455.09
2022-12-01T12:33:47.790Z,97453.38
2022-12-01T12:36:17.130Z,97433.81
2022-12-01T12:38:53.729Z,97393.09
2022-12-01T12:41:29.373Z,97356.56
2022-12-01T12:44:05.027Z,97351.72
2022-12-01T12:46:43.747Z,97355.34
2022-12-01T12:49:20.545Z,97311.75
2022-12-01T12:52:09.267Z,97292.97
2022-12-01T12:55:03.920Z,97283.69
2022-12-01T12:57:38.805Z,97272.50
2022-12-01T13:00:27.284Z,97247.03
2022-12-01T13:03:07.162Z,97267.19
2022-12-01T13:05:43.801Z,97260.44
2022-12-01T13:08:13.216Z,97235.94
2022-12-01T13:10:49.119Z,97232.09
2022-12-01T13:13:37.541Z,97244.81
2022-12-01T13:16:05.025Z,97272.91
2022-12-01T13:18:53.647Z,97289.34
2022-12-01T13:21:20.887Z,97283.97
2022-12-01T13:23:48.466Z,97300.41
2022-12-01T13:26:15.219Z,97305.66
2022-12-01T13:28:50.165Z,97302.72
2022-12-01T13:31:17.057Z,97296.94
2022-12-01T13:34:01.258Z,97264.53
2022-12-01T13:36:46.204Z,97233.19
2022-12-01T13:39:24.833Z,97245.97
2022-12-01T13:42:00.816Z,97292.66
2022-12-01T13:44:39.511Z,97299.88
2022-12-01T13:47:08.589Z,97322.19
2022-12-01T13:49:48.676Z,97343.25
2022-12-01T13:52:21.483Z,97355.19
2022-12-01T13:55:03.194Z,97332.84
2022-12-01T13:57:31.892Z,97286.44
2022-12-01T13:59:58.235Z,97292.38
2022-12-01T14:02:26.083Z,97305.59
2022-12-01T14:04:52.719Z,97307.03
2022-12-01T14:07:37.597Z,97299.88
2022-12-01T14:10:27.597Z,97292.72
2022-12-01T14:12:55.976Z,97311.50
2022-12-01T14:15:30.010Z,97317.47
2022-12-01T14:18:08.288Z,97341.34
2022-12-01T14:20:37.752Z,97365.25
2022-12-01T14:23:13.162Z,97369.03
2022-12-01T14:25:39.890Z,97310.63
2022-12-01T14:28:13.816Z,97302.72
2022-12-01T14:30:45.548Z,97328.88
2022-12-01T14:33:39.549Z,97333.44
2022-12-01T14:36:21.176Z,97324.00
2022-12-01T14:38:47.745Z,97306.13
2022-12-01T14:41:47.544Z,97271.22
2022-12-01T14:44:16.279Z,97218.19
2022-12-01T14:46:47.969Z,97205.00
2022-12-01T14:49:21.891Z,97174.81
2022-12-01T14:51:49.939Z,97123.84
2022-12-01T14:54:24.252Z,97076.38
2022-12-01T14:56:52.007Z,97057.88
2022-12-01T14:59:23.075Z,97029.53
2022-12-01T15:01:51.321Z,97008.50
2022-12-01T15:04:17.943Z,96983.91
2022-12-01T15:06:44.307Z,96931.53
2022-12-01T15:09:34.640Z,96914.88
2022-12-01T15:12:03.794Z,96888.44
2022-12-01T15:14:49.031Z,96914.78
2022-12-01T15:17:32.634Z,96911.13
2022-12-01T15:19:59.018Z,96913.78
2022-12-01T15:22:30.316Z,96907.44
2022-12-01T15:25:10.861Z,96910.28
2022-12-01T15:27:37.337Z,96918.59
2022-12-01T15:30:04.577Z,96923.63
2022-12-01T15:32:32.124Z,96938.28
2022-12-01T15:35:01.897Z,96975.16
2022-12-01T15:37:28.616Z,96960.97
2022-12-01T15:40:11.888Z,96971.47
2022-12-01T15:42:43.668Z,96982.00
2022-12-01T15:45:20.042Z,96971.31
2022-12-01T15:47:50.874Z,96960.63
2022-12-01T15:50:42.669Z,96997.66
2022-12-01T15:53:33.284Z,97003.41
2022-12-01T15:56:00.577Z,96998.69
2022-12-01T15:58:30.160Z,97028.78
2022-12-01T16:01:05.380Z,97057.06
2022-12-01T16:03:32.462Z,97096.59
2022-12-01T16:05:58.887Z,97134.50
2022-12-01T16:08:26.959Z,97172.84
2022-12-01T16:11:12.975Z,97168.25
2022-12-01T16:13:49.181Z,97178.75
2022-12-01T16:16:43.552Z,97210.56
2022-12-01T16:19:09.920Z,97207.19
2022-12-01T16:22:18.498Z,97223.78
2022-12-01T16:24:52.644Z,97203.53
2022-12-01T16:27:23.264Z,97205.53
2022-12-01T16:30:12.610Z,97214.19
2022-12-01T16:32:40.471Z,97208.84
2022-12-01T16:35:21.228Z,97236.88
2022-12-01T16:37:47.588Z,97212.34
2022-12-01T16:40:14.837Z,97216.84
2022-12-01T16:42:41.192Z,97202.28
2022-12-01T16:45:09.809Z,97184.00
2022-12-01T16:47:36.280Z,97188.50
2022-12-01T16:50:02.801Z,97183.03
2022-12-01T16:52:44.304Z,97153.53
2022-12-01T16:55:27.357Z,97116.25
2022-12-01T16:57:55.261Z,97116.44
2022-12-01T17:00:22.530Z,97137.59
2022-12-01T17:02:49.026Z,97117.91
2022-12-01T17:05:15.504Z,97084.72
2022-12-01T17:07:41.989Z,97089.88
2022-12-01T17:10:08.829Z,97093.25
2022-12-01T17:12:35.214Z,97116.50
2022-12-01T17:15:01.812Z,97134.81
2022-12-01T17:17:29.409Z,97140.75
2022-12-01T17:19:55.907Z,97141.22
2022-12-01T17:22:22.328Z,97117.06
2022-12-01T17:24:49.184Z,97105.38
2022-12-01T17:27:15.807Z,97085.78
2022-12-01T17:29:46.101Z,97049.41
2022-12-01T17:32:13.633Z,97025.00
2022-12-01T17:34:40.195Z,97030.72
2022-12-01T17:37:06.576Z,97021.25
2022-12-01T17:39:32.975Z,97023.97
2022-12-01T17:41:59.329Z,97006.56
2022-12-01T17:44:25.669Z,97003.81
2022-12-01T17:46:52.110Z,97007.00
2022-12-01T17:49:18.631Z,97034.50
2022-12-01T17:51:45.055Z,97054.16
2022-12-01T17:54:11.482Z,97068.72
2022-12-01T17:56:37.856Z,97087.41
2022-12-01T17:59:04.205Z,97104.72
2022-12-01T18:01:30.906Z,97138.25
2022-12-01T18:03:57.674Z,97150.19
2022-12-01T18:06:25.496Z,97155.94
2022-12-01T18:08:51.852Z,97180.00
2022-12-01T18:11:18.236Z,97227.00
2022-12-01T18:13:46.753Z,97267.38
2022-12-01T18:16:14.516Z,97282.03
2022-12-01T18:18:41.044Z,97312.38
2022-12-01T18:21:08.419Z,97325.91
2022-12-01T18:23:34.876Z,97331.91
2022-12-01T18:26:15.678Z,97352.06
2022-12-01T18:28:43.019Z,97365.06
2022-12-01T18:31:14.591Z,97347.56
2022-12-01T18:33:42.069Z,97348.63
2022-12-01T18:36:26.537Z,97356.84
2022-12-01T18:38:54.371Z,97378.72
2022-12-01T18:41:20.737Z,97379.78
2022-12-01T18:43:47.112Z,97385.72
2022-12-01T18:46:14.702Z,97392.69
2022-12-01T18:48:45.750Z,97394.53
2022-12-01T18:51:12.354Z,97374.59
2022-12-01T18:53:38.787Z,97366.84
2022-12-01T18:56:06.708Z,97371.22
2022-12-01T18:58:33.162Z,97381.00
2022-12-01T19:01:00.229Z,97363.81
2022-12-01T19:03:33.080Z,97338.78
2022-12-01T19:05:59.452Z,97326.09
2022-12-01T19:08:25.781Z,97303.47
2022-12-01T19:11:02.043Z,97318.34
2022-12-01T19:13:29.691Z,97311.28
2022-12-01T19:15:56.181Z,97304.22
2022-12-01T19:18:22.596Z,97314.63
2022-12-01T19:20:48.999Z,97326.09
2022-12-01T19:23:15.339Z,97306.09
2022-12-01T19:25:42.825Z,97303.59
2022-12-01T19:28:09.255Z,97280.66
2022-12-01T19:30:35.598Z,97262.84
2022-12-01T19:33:02.022Z,97222.72
2022-12-01T19:35:28.409Z,97204.84
2022-12-01T19:37:54.775Z,97186.63
2022-12-01T19:40:21.255Z,97198.88
2022-12-01T19:42:47.643Z,97186.09
2022-12-01T19:45:13.985Z,97187.81
2022-12-01T19:47:40.383Z,97160.09
2022-12-01T19:50:07.289Z,97140.66
2022-12-01T19:52:35.954Z,97117.13
2022-12-01T19:55:02.497Z,97073.28
2022-12-01T19:57:28.884Z,97015.75
2022-12-01T19:59:55.240Z,96946.44
2022-12-01T20:02:28.802Z,96887.78
2022-12-01T20:04:56.511Z,96821.78
2022-12-01T20:07:22.967Z,96790.66
2022-12-01T20:09:50.173Z,96739.50
2022-12-01T20:12:16.888Z,96677.53
2022-12-01T20:14:43.276Z,96611.34
2022-12-01T20:17:15.544Z,96550.28
2022-12-01T20:19:42.289Z,96484.81
2022-12-01T20:22:08.670Z,96444.41
2022-12-01T20:24:35.877Z,96393.31
2022-12-01T20:27:02.233Z,96352.84
2022-12-01T20:29:29.027Z,96312.19
2022-12-01T20:31:56.563Z,96278.91
2022-12-01T20:34:26.600Z,96245.88
2022-12-01T20:36:53.399Z,96235.84
2022-12-01T20:39:19.979Z,96223.66
2022-12-01T20:41:46.632Z,96234.97
2022-12-01T20:44:13.434Z,96213.00
2022-12-01T20:46:40.983Z,96174.81
2022-12-01T20:49:07.448Z,96173.44
2022-12-01T20:51:34.528Z,96151.03
2022-12-01T20:56:54.223Z,96140.06
2022-12-01T20:59:20.572Z,96114.66
2022-12-01T21:01:46.983Z,96086.69
2022-12-01T21:04:13.378Z,96093.00
2022-12-01T21:06:39.804Z,96049.94
2022-12-01T21:09:07.378Z,96031.47
2022-12-01T21:11:55.134Z,96059.13
2022-12-01T21:14:43.422Z,96041.91
2022-12-01T21:17:27.967Z,96023.09
2022-12-01T21:20:02.452Z,96026.00
2022-12-01T21:22:28.850Z,96063.69
2022-12-01T21:25:01.201Z,96048.63
2022-12-01T21:27:27.577Z,96021.53
2022-12-01T21:29:54.166Z,96031.69
2022-12-01T21:32:31.271Z,96050.38
2022-12-01T21:35:01.317Z,96058.31
2022-12-01T21:37:27.718Z,96060.88
2022-12-01T21:39:55.985Z,96069.47
2022-12-01T21:42:25.241Z,96072.75
2022-12-01T21:44:51.933Z,96074.22
2022-12-01T21:47:22.937Z,96094.44
2022-12-01T21:49:51.453Z,96100.84
2022-12-01T21:52:25.004Z,96079.59
2022-12-01T21:54:51.811Z,96081.44
2022-12-01T21:57:25.245Z,96083.91
2022-12-01T21:59:51.989Z,96083.72
2022-12-01T22:02:31.017Z,96107.34
2022-12-01T22:04:58.511Z,96115.09
2022-12-01T22:07:26.907Z,96119.72
2022-12-01T22:09:53.313Z,96123.34
2022-12-01T22:12:24.559Z,96111.19
2022-12-01T22:14:51.157Z,96117.56
2022-12-01T22:17:21.057Z,96098.56
2022-12-01T22:20:02.779Z,96089.88
2022-12-01T22:22:29.712Z,96086.41
2022-12-01T22:25:22.940Z,96064.91
2022-12-01T22:27:49.308Z,96078.72
2022-12-01T22:30:20.862Z,96057.88
2022-12-01T22:32:57.118Z,96034.97
2022-12-01T22:35:48.834Z,95989.78
2022-12-01T22:38:23.906Z,95991.00
2022-12-01T22:41:08.603Z,95980.56
2022-12-01T22:43:41.312Z,95959.41
2022-12-01T22:46:19.802Z,95949.69
2022-12-01T22:48:47.955Z,95996.44
2022-12-01T22:51:14.383Z,96004.00
2022-12-01T22:53:41.585Z,96012.25
2022-12-01T22:56:38.568Z,96060.94
2022-12-01T22:59:29.501Z,96042.59
2022-12-01T23:01:57.541Z,96063.25
2022-12-01T23:04:29.118Z,96043.94
2022-12-01T23:06:56.961Z,96049.41
2022-12-01T23:09:27.273Z,96055.50
2022-12-01T23:12:09.833Z,96057.88
2022-12-01T23:14:47.809Z,96041.25
2022-12-01T23:17:28.142Z,96059.50
2022-12-01T23:20:28.269Z,96056.31
2022-12-01T23:22:55.877Z,96093.53
2022-12-01T23:25:23.282Z,96074.69
2022-12-01T23:27:50.634Z,96074.78
2022-12-01T23:30:17.863Z,96078.31
2022-12-01T23:32:44.276Z,96078.72
2022-12-01T23:35:14.593Z,96059.31
2022-12-01T23:37:41.705Z,96096.66
2022-12-01T23:40:32.974Z,96125.97
2022-12-01T23:43:25.375Z,96132.41
2022-12-01T23:46:02.330Z,96116.84
2022-12-01T23:48:36.080Z,96109.41
2022-12-01T23:51:02.805Z,96097.84
2022-12-01T23:53:31.345Z,96113.50
2022-12-01T23:56:02.326Z,96116.66
2022-12-01T23:58:28.665Z,96072.25
